Maersk Bulan — 9V7693 — position and weather

sailwx.info

Track history (hours):
 
Tides and Currents Weather Stations Pressure Air Temp Water Temp Dewpoint Dewpoint Depression Visibility Wind Speed Wind Dir Waves Ship Positions

Maersk Bulan

Last reported at 2014-Oct-25 18:31 UTC. Time now 2014-Oct-25 19:02 UTC.
Position N 40°45' E 028°55'.

Length 223 m; draft 8.8 m.

Type: Ship (hazmat cat A). MMSI: 563455000.

Date/timePositionNaut miles runAvg speedWind from/ knotsBaromVisibWave heightAir tempDewpointWater temp
2014-Oct-25 18:31N 40°45' E 028°55'1110.7
2014-Oct-25 17:28N 40°51' E 028°42'6 0.4
2014-Oct-25 03:09N 40°55' E 028°47'711.1
2014-Oct-25 02:33N 40°57' E 028°55'40 4.9
2014-Oct-24 18:33N 41°27' E 029°28'25812.8
2014-Oct-23 22:27N 43°25' E 034°40'2512.8
2014-Oct-23 20:31N 43°36' E 035°10'1612.7
2014-Oct-23 19:17N 43°44' E 035°29'1212.7
2014-Oct-23 18:21N 43°49' E 035°44'1112.6
2014-Oct-23 17:30N 43°54' E 035°57'1312.6
2014-Oct-23 16:28N 43°60' E 036°14'1112.4
2014-Oct-23 15:33N 44°05' E 036°27'1312.6
2014-Oct-23 14:33N 44°11' E 036°43'1312.8
2014-Oct-23 13:33N 44°17' E 036°59'1312.8
2014-Oct-23 12:33N 44°23' E 037°14'1313.1
2014-Oct-23 11:33N 44°28' E 037°31'1312.8
2014-Oct-23 10:33N 44°35' E 037°46'8 7.6
2014-Oct-23 09:31N 44°43' E 037°48'0 0.5
2014-Oct-23 08:31N 44°43' E 037°49'0 0.0
2014-Oct-23 07:31N 44°43' E 037°49'0 0.0
2014-Oct-23 06:31N 44°43' E 037°49'0 0.0
2014-Oct-23 05:31N 44°43' E 037°49'0 0.0
2014-Oct-23 04:31N 44°43' E 037°49'0 0.0
2014-Oct-23 03:31N 44°43' E 037°49'0 0.0
2014-Oct-23 02:31N 44°43' E 037°49'0 0.0
2014-Oct-23 01:31N 44°43' E 037°49'0 0.0
2014-Oct-23 00:28N 44°43' E 037°49'0 0.0
2014-Oct-22 23:31N 44°43' E 037°49'0 0.0
2014-Oct-22 22:31N 44°43' E 037°49'0 0.0
2014-Oct-22 21:31N 44°43' E 037°49'0 0.0
2014-Oct-22 20:31N 44°43' E 037°49'0 0.0
2014-Oct-22 19:31N 44°43' E 037°49'0 0.0
2014-Oct-22 18:31N 44°43' E 037°49'0 0.0
2014-Oct-22 17:31N 44°43' E 037°49'0 0.0
2014-Oct-22 16:31N 44°43' E 037°49'0 0.0
2014-Oct-22 15:31N 44°43' E 037°49'0 0.0
2014-Oct-22 14:31N 44°43' E 037°49'0 0.0
2014-Oct-22 13:31N 44°43' E 037°49'0 0.0
2014-Oct-22 12:31N 44°43' E 037°49'0 0.0
2014-Oct-22 11:31N 44°43' E 037°49'0 0.0
2014-Oct-22 10:31N 44°43' E 037°49'0 0.0
2014-Oct-22 09:31N 44°43' E 037°49'0 0.0
2014-Oct-22 08:31N 44°43' E 037°49'0 0.0
2014-Oct-22 07:31N 44°43' E 037°49'0 0.0
2014-Oct-22 06:31N 44°43' E 037°49'0 0.0
2014-Oct-22 05:31N 44°43' E 037°49'0 0.0
2014-Oct-22 04:31N 44°43' E 037°49'0 0.0
2014-Oct-22 03:31N 44°43' E 037°49'0 0.0
2014-Oct-22 02:31N 44°43' E 037°49'0 0.0
2014-Oct-22 01:31N 44°43' E 037°49'0 0.0
2014-Oct-22 00:31N 44°43' E 037°49'0 0.0
2014-Oct-21 23:31N 44°43' E 037°49'0 0.0
2014-Oct-21 22:31N 44°43' E 037°49'0 0.0
2014-Oct-21 21:31N 44°43' E 037°49'0 0.0
2014-Oct-21 20:31N 44°43' E 037°49'0 0.0
2014-Oct-21 19:31N 44°43' E 037°49'0 0.0
2014-Oct-21 18:31N 44°43' E 037°49'0 0.0
2014-Oct-21 17:31N 44°43' E 037°49'0 0.0
2014-Oct-21 16:31N 44°43' E 037°49'0 0.0
2014-Oct-21 15:31N 44°43' E 037°49'0 0.0
2014-Oct-21 14:31N 44°43' E 037°49'0 0.0
2014-Oct-21 13:31N 44°43' E 037°49'0 0.0
2014-Oct-21 12:31N 44°43' E 037°49'0 0.0
2014-Oct-21 11:31N 44°43' E 037°49'0 0.0
2014-Oct-21 10:31N 44°43' E 037°49'0 0.1
2014-Oct-21 09:34N 44°43' E 037°49'6 5.7
2014-Oct-21 08:34N 44°38' E 037°52'6 6.5
2014-Oct-21 07:34N 44°32' E 037°50'1110.6
2014-Oct-21 06:34N 44°25' E 037°38'1111.2
2014-Oct-21 05:33N 44°22' E 037°23'1212.0
2014-Oct-21 04:31N 44°16' E 037°07'9612.0
2014-Oct-20 20:32N 44°16' E 034°53'1212.1
2014-Oct-20 19:34N 44°16' E 034°37'1211.8
2014-Oct-20 18:34N 44°15' E 034°20'1211.8
2014-Oct-20 17:33N 44°15' E 034°04'4510.9
2014-Oct-20 13:24N 44°33' E 033°06'1011.6
2014-Oct-20 12:32N 44°41' E 032°56'264 5.4
2014-Oct-18 11:26N 41°15' E 029°10'19 9.8
2014-Oct-18 09:32N 40°58' E 028°60'8 8.2
2014-Oct-18 08:33N 40°50' E 029°01'  
Track history (hours):
 
Tides and Currents Weather Stations Pressure Air Temp Water Temp Dewpoint Dewpoint Depression Visibility Wind Speed Wind Dir Waves Ship Positions

Maersk Bulan

Last reported at 2014-Oct-25 18:31 UTC. Time now 2014-Oct-25 19:02 UTC.
Position N 40°45' E 028°55'.

Length 223 m; draft 8.8 m.

Type: Ship (hazmat cat A). MMSI: 563455000.

Date/timePositionNaut miles runAvg speedWind from/ knotsBaromVisibWave heightAir tempDewpointWater temp
2014-Oct-25 18:31N 40°45' E 028°55'1110.7
2014-Oct-25 17:28N 40°51' E 028°42'6 0.4
2014-Oct-25 03:09N 40°55' E 028°47'711.1
2014-Oct-25 02:33N 40°57' E 028°55'40 4.9
2014-Oct-24 18:33N 41°27' E 029°28'25812.8
2014-Oct-23 22:27N 43°25' E 034°40'2512.8
2014-Oct-23 20:31N 43°36' E 035°10'1612.7
2014-Oct-23 19:17N 43°44' E 035°29'1212.7
2014-Oct-23 18:21N 43°49' E 035°44'1112.6
2014-Oct-23 17:30N 43°54' E 035°57'1312.6
2014-Oct-23 16:28N 43°60' E 036°14'1112.4
2014-Oct-23 15:33N 44°05' E 036°27'1312.6
2014-Oct-23 14:33N 44°11' E 036°43'1312.8
2014-Oct-23 13:33N 44°17' E 036°59'1312.8
2014-Oct-23 12:33N 44°23' E 037°14'1313.1
2014-Oct-23 11:33N 44°28' E 037°31'1312.8
2014-Oct-23 10:33N 44°35' E 037°46'8 7.6
2014-Oct-23 09:31N 44°43' E 037°48'0 0.5
2014-Oct-23 08:31N 44°43' E 037°49'0 0.0
2014-Oct-23 07:31N 44°43' E 037°49'0 0.0
2014-Oct-23 06:31N 44°43' E 037°49'0 0.0
2014-Oct-23 05:31N 44°43' E 037°49'0 0.0
2014-Oct-23 04:31N 44°43' E 037°49'0 0.0
2014-Oct-23 03:31N 44°43' E 037°49'0 0.0
2014-Oct-23 02:31N 44°43' E 037°49'0 0.0
2014-Oct-23 01:31N 44°43' E 037°49'0 0.0
2014-Oct-23 00:28N 44°43' E 037°49'0 0.0
2014-Oct-22 23:31N 44°43' E 037°49'0 0.0
2014-Oct-22 22:31N 44°43' E 037°49'0 0.0
2014-Oct-22 21:31N 44°43' E 037°49'0 0.0
2014-Oct-22 20:31N 44°43' E 037°49'0 0.0
2014-Oct-22 19:31N 44°43' E 037°49'0 0.0
2014-Oct-22 18:31N 44°43' E 037°49'0 0.0
2014-Oct-22 17:31N 44°43' E 037°49'0 0.0
2014-Oct-22 16:31N 44°43' E 037°49'0 0.0
2014-Oct-22 15:31N 44°43' E 037°49'0 0.0
2014-Oct-22 14:31N 44°43' E 037°49'0 0.0
2014-Oct-22 13:31N 44°43' E 037°49'0 0.0
2014-Oct-22 12:31N 44°43' E 037°49'0 0.0
2014-Oct-22 11:31N 44°43' E 037°49'0 0.0
2014-Oct-22 10:31N 44°43' E 037°49'0 0.0
2014-Oct-22 09:31N 44°43' E 037°49'0 0.0
2014-Oct-22 08:31N 44°43' E 037°49'0 0.0
2014-Oct-22 07:31N 44°43' E 037°49'0 0.0
2014-Oct-22 06:31N 44°43' E 037°49'0 0.0
2014-Oct-22 05:31N 44°43' E 037°49'0 0.0
2014-Oct-22 04:31N 44°43' E 037°49'0 0.0
2014-Oct-22 03:31N 44°43' E 037°49'0 0.0
2014-Oct-22 02:31N 44°43' E 037°49'0 0.0
2014-Oct-22 01:31N 44°43' E 037°49'0 0.0
2014-Oct-22 00:31N 44°43' E 037°49'0 0.0
2014-Oct-21 23:31N 44°43' E 037°49'0 0.0
2014-Oct-21 22:31N 44°43' E 037°49'0 0.0
2014-Oct-21 21:31N 44°43' E 037°49'0 0.0
2014-Oct-21 20:31N 44°43' E 037°49'0 0.0
2014-Oct-21 19:31N 44°43' E 037°49'0 0.0
2014-Oct-21 18:31N 44°43' E 037°49'0 0.0
2014-Oct-21 17:31N 44°43' E 037°49'0 0.0
2014-Oct-21 16:31N 44°43' E 037°49'0 0.0
2014-Oct-21 15:31N 44°43' E 037°49'0 0.0
2014-Oct-21 14:31N 44°43' E 037°49'0 0.0
2014-Oct-21 13:31N 44°43' E 037°49'0 0.0
2014-Oct-21 12:31N 44°43' E 037°49'0 0.0
2014-Oct-21 11:31N 44°43' E 037°49'0 0.0
2014-Oct-21 10:31N 44°43' E 037°49'0 0.1
2014-Oct-21 09:34N 44°43' E 037°49'6 5.7
2014-Oct-21 08:34N 44°38' E 037°52'6 6.5
2014-Oct-21 07:34N 44°32' E 037°50'1110.6
2014-Oct-21 06:34N 44°25' E 037°38'1111.2
2014-Oct-21 05:33N 44°22' E 037°23'1212.0
2014-Oct-21 04:31N 44°16' E 037°07'9612.0
2014-Oct-20 20:32N 44°16' E 034°53'1212.1
2014-Oct-20 19:34N 44°16' E 034°37'1211.8
2014-Oct-20 18:34N 44°15' E 034°20'1211.8
2014-Oct-20 17:33N 44°15' E 034°04'4510.9
2014-Oct-20 13:24N 44°33' E 033°06'1011.6
2014-Oct-20 12:32N 44°41' E 032°56'264 5.4
2014-Oct-18 11:26N 41°15' E 029°10'19 9.8
2014-Oct-18 09:32N 40°58' E 028°60'8 8.2
2014-Oct-18 08:33N 40°50' E 029°01'  

Dump ship's entire track history